sensor_id;sensor_type;location;lat;lon;timestamp;temperature;humidity
39751;DHT22;37579;51.074;17.004;2023-01-16T00:00:52;23.00;58.40
39751;DHT22;37579;51.074;17.004;2023-01-16T00:03:18;23.00;58.40
39751;DHT22;37579;51.074;17.004;2023-01-16T00:05:44;23.00;58.30
39751;DHT22;37579;51.074;17.004;2023-01-16T00:08:10;23.00;58.30
39751;DHT22;37579;51.074;17.004;2023-01-16T00:10:35;22.90;58.50
39751;DHT22;37579;51.074;17.004;2023-01-16T00:13:01;22.90;58.40
39751;DHT22;37579;51.074;17.004;2023-01-16T00:15:27;22.90;58.40
39751;DHT22;37579;51.074;17.004;2023-01-16T00:17:53;22.90;58.60
39751;DHT22;37579;51.074;17.004;2023-01-16T00:20:19;22.80;58.70
39751;DHT22;37579;51.074;17.004;2023-01-16T00:22:45;22.80;58.90
39751;DHT22;37579;51.074;17.004;2023-01-16T00:25:11;22.80;59.00
39751;DHT22;37579;51.074;17.004;2023-01-16T00:27:37;22.80;58.80
39751;DHT22;37579;51.074;17.004;2023-01-16T00:30:04;22.80;58.90
39751;DHT22;37579;51.074;17.004;2023-01-16T00:32:30;22.90;58.80
39751;DHT22;37579;51.074;17.004;2023-01-16T00:34:56;22.80;58.90
39751;DHT22;37579;51.074;17.004;2023-01-16T00:37:22;22.80;59.00
39751;DHT22;37579;51.074;17.004;2023-01-16T00:39:47;22.70;59.00
39751;DHT22;37579;51.074;17.004;2023-01-16T00:42:14;22.70;59.00
39751;DHT22;37579;51.074;17.004;2023-01-16T00:44:40;22.80;58.90
39751;DHT22;37579;51.074;17.004;2023-01-16T00:47:06;22.70;58.90
39751;DHT22;37579;51.074;17.004;2023-01-16T00:49:32;22.80;59.00
39751;DHT22;37579;51.074;17.004;2023-01-16T00:51:58;22.80;59.10
39751;DHT22;37579;51.074;17.004;2023-01-16T00:54:24;22.70;59.00
39751;DHT22;37579;51.074;17.004;2023-01-16T00:56:50;22.70;59.10
39751;DHT22;37579;51.074;17.004;2023-01-16T00:59:15;22.70;59.00
39751;DHT22;37579;51.074;17.004;2023-01-16T01:01:41;22.70;59.10
39751;DHT22;37579;51.074;17.004;2023-01-16T01:04:07;22.70;59.10
39751;DHT22;37579;51.074;17.004;2023-01-16T01:06:33;22.70;59.10
39751;DHT22;37579;51.074;17.004;2023-01-16T01:08:59;22.70;59.10
39751;DHT22;37579;51.074;17.004;2023-01-16T01:11:24;22.70;59.10
39751;DHT22;37579;51.074;17.004;2023-01-16T01:13:50;22.60;59.10
39751;DHT22;37579;51.074;17.004;2023-01-16T01:16:16;22.60;59.10
39751;DHT22;37579;51.074;17.004;2023-01-16T01:18:42;22.70;59.10
39751;DHT22;37579;51.074;17.004;2023-01-16T01:21:09;22.60;59.10
39751;DHT22;37579;51.074;17.004;2023-01-16T01:23:35;22.60;59.10
39751;DHT22;37579;51.074;17.004;2023-01-16T01:26:12;22.60;59.10
39751;DHT22;37579;51.074;17.004;2023-01-16T01:28:38;22.60;59.10
39751;DHT22;37579;51.074;17.004;2023-01-16T01:31:05;22.60;59.00
39751;DHT22;37579;51.074;17.004;2023-01-16T01:33:32;22.60;59.00
39751;DHT22;37579;51.074;17.004;2023-01-16T01:35:58;22.60;59.00
39751;DHT22;37579;51.074;17.004;2023-01-16T01:38:24;22.60;59.00
39751;DHT22;37579;51.074;17.004;2023-01-16T01:40:49;22.60;58.90
39751;DHT22;37579;51.074;17.004;2023-01-16T01:43:16;22.60;59.00
39751;DHT22;37579;51.074;17.004;2023-01-16T01:45:50;22.60;58.90
39751;DHT22;37579;51.074;17.004;2023-01-16T01:48:28;22.60;59.00
39751;DHT22;37579;51.074;17.004;2023-01-16T01:51:03;22.60;59.00
39751;DHT22;37579;51.074;17.004;2023-01-16T01:53:41;22.50;58.90
39751;DHT22;37579;51.074;17.004;2023-01-16T01:56:13;22.50;58.90
39751;DHT22;37579;51.074;17.004;2023-01-16T01:58:42;22.50;58.90
39751;DHT22;37579;51.074;17.004;2023-01-16T02:01:14;22.50;58.90
39751;DHT22;37579;51.074;17.004;2023-01-16T02:03:44;22.50;58.80
39751;DHT22;37579;51.074;17.004;2023-01-16T02:06:20;22.50;58.90
39751;DHT22;37579;51.074;17.004;2023-01-16T02:08:47;22.50;58.90
39751;DHT22;37579;51.074;17.004;2023-01-16T02:11:36;22.60;58.90
39751;DHT22;37579;51.074;17.004;2023-01-16T02:14:13;22.50;59.10
39751;DHT22;37579;51.074;17.004;2023-01-16T02:16:40;22.60;63.10
39751;DHT22;37579;51.074;17.004;2023-01-16T02:20:29;22.50;58.90
39751;DHT22;37579;51.074;17.004;2023-01-16T02:42:48;22.60;67.00
39751;DHT22;37579;51.074;17.004;2023-01-16T02:53:26;22.60;58.00
39751;DHT22;37579;51.074;17.004;2023-01-16T02:55:59;22.70;58.00
39751;DHT22;37579;51.074;17.004;2023-01-16T02:58:33;22.70;57.90
39751;DHT22;37579;51.074;17.004;2023-01-16T03:01:00;22.70;57.90
39751;DHT22;37579;51.074;17.004;2023-01-16T03:12:09;22.70;57.70
39751;DHT22;37579;51.074;17.004;2023-01-16T03:14:33;22.70;57.60
39751;DHT22;37579;51.074;17.004;2023-01-16T03:17:17;22.70;57.60
39751;DHT22;37579;51.074;17.004;2023-01-16T03:22:44;22.70;57.60
39751;DHT22;37579;51.074;17.004;2023-01-16T03:25:21;22.80;57.50
39751;DHT22;37579;51.074;17.004;2023-01-16T03:28:10;22.80;57.50
39751;DHT22;37579;51.074;17.004;2023-01-16T03:39:32;22.80;57.30
39751;DHT22;37579;51.074;17.004;2023-01-16T03:42:05;22.70;57.30
39751;DHT22;37579;51.074;17.004;2023-01-16T03:44:39;22.70;57.30
39751;DHT22;37579;51.074;17.004;2023-01-16T03:47:10;22.70;57.30
39751;DHT22;37579;51.074;17.004;2023-01-16T03:49:40;22.70;57.20
39751;DHT22;37579;51.074;17.004;2023-01-16T03:52:10;22.70;57.30
39751;DHT22;37579;51.074;17.004;2023-01-16T03:55:05;22.70;57.20
39751;DHT22;37579;51.074;17.004;2023-01-16T03:57:42;22.70;57.30
39751;DHT22;37579;51.074;17.004;2023-01-16T04:00:10;22.70;57.20
39751;DHT22;37579;51.074;17.004;2023-01-16T04:02:57;22.70;57.30
39751;DHT22;37579;51.074;17.004;2023-01-16T04:08:14;22.70;57.30
39751;DHT22;37579;51.074;17.004;2023-01-16T04:10:44;22.60;57.30
39751;DHT22;37579;51.074;17.004;2023-01-16T04:13:21;22.60;57.20
39751;DHT22;37579;51.074;17.004;2023-01-16T04:15:51;22.60;57.20
39751;DHT22;37579;51.074;17.004;2023-01-16T04:18:20;22.60;57.20
39751;DHT22;37579;51.074;17.004;2023-01-16T04:20:48;22.60;57.30
39751;DHT22;37579;51.074;17.004;2023-01-16T04:23:17;22.60;57.30
39751;DHT22;37579;51.074;17.004;2023-01-16T04:25:45;22.60;57.30
39751;DHT22;37579;51.074;17.004;2023-01-16T04:28:11;22.60;57.30
39751;DHT22;37579;51.074;17.004;2023-01-16T04:30:37;22.60;57.20
39751;DHT22;37579;51.074;17.004;2023-01-16T04:33:04;22.60;57.30
39751;DHT22;37579;51.074;17.004;2023-01-16T04:35:30;22.50;57.30
39751;DHT22;37579;51.074;17.004;2023-01-16T04:37:56;22.50;57.30
39751;DHT22;37579;51.074;17.004;2023-01-16T04:40:22;22.50;57.30
39751;DHT22;37579;51.074;17.004;2023-01-16T04:42:48;22.50;57.40
39751;DHT22;37579;51.074;17.004;2023-01-16T04:45:14;22.50;57.30
39751;DHT22;37579;51.074;17.004;2023-01-16T04:47:44;22.50;57.50
39751;DHT22;37579;51.074;17.004;2023-01-16T04:50:10;22.50;57.30
39751;DHT22;37579;51.074;17.004;2023-01-16T04:52:36;22.50;57.40
39751;DHT22;37579;51.074;17.004;2023-01-16T04:55:01;22.50;57.30
39751;DHT22;37579;51.074;17.004;2023-01-16T04:57:27;22.50;57.40
39751;DHT22;37579;51.074;17.004;2023-01-16T04:59:53;22.50;57.40
39751;DHT22;37579;51.074;17.004;2023-01-16T05:02:19;22.50;57.40
39751;DHT22;37579;51.074;17.004;2023-01-16T05:04:45;22.50;57.40
39751;DHT22;37579;51.074;17.004;2023-01-16T05:07:10;22.60;57.40
39751;DHT22;37579;51.074;17.004;2023-01-16T05:09:36;22.60;57.50
39751;DHT22;37579;51.074;17.004;2023-01-16T05:12:02;22.50;57.40
39751;DHT22;37579;51.074;17.004;2023-01-16T05:14:28;22.50;57.50
39751;DHT22;37579;51.074;17.004;2023-01-16T05:16:54;22.50;57.30
39751;DHT22;37579;51.074;17.004;2023-01-16T05:19:19;22.50;57.20
39751;DHT22;37579;51.074;17.004;2023-01-16T05:21:45;22.60;57.00
39751;DHT22;37579;51.074;17.004;2023-01-16T05:24:11;22.70;56.80
39751;DHT22;37579;51.074;17.004;2023-01-16T05:26:37;22.70;56.60
39751;DHT22;37579;51.074;17.004;2023-01-16T05:29:03;22.70;56.60
39751;DHT22;37579;51.074;17.004;2023-01-16T05:31:28;22.70;56.50
39751;DHT22;37579;51.074;17.004;2023-01-16T05:33:54;22.80;56.40
39751;DHT22;37579;51.074;17.004;2023-01-16T05:36:20;22.80;56.30
39751;DHT22;37579;51.074;17.004;2023-01-16T05:38:46;22.80;56.30
39751;DHT22;37579;51.074;17.004;2023-01-16T05:41:12;22.80;56.20
39751;DHT22;37579;51.074;17.004;2023-01-16T05:43:38;22.80;56.10
39751;DHT22;37579;51.074;17.004;2023-01-16T05:46:04;22.80;56.10
39751;DHT22;37579;51.074;17.004;2023-01-16T05:48:30;22.80;56.00
39751;DHT22;37579;51.074;17.004;2023-01-16T05:51:02;22.80;56.00
39751;DHT22;37579;51.074;17.004;2023-01-16T05:53:28;22.80;55.90
39751;DHT22;37579;51.074;17.004;2023-01-16T05:55:56;22.90;55.90
39751;DHT22;37579;51.074;17.004;2023-01-16T05:58:22;22.90;55.90
39751;DHT22;37579;51.074;17.004;2023-01-16T06:00:48;22.90;55.80
39751;DHT22;37579;51.074;17.004;2023-01-16T06:03:14;22.90;55.90
39751;DHT22;37579;51.074;17.004;2023-01-16T06:05:43;22.80;55.80
39751;DHT22;37579;51.074;17.004;2023-01-16T06:08:09;22.90;55.70
39751;DHT22;37579;51.074;17.004;2023-01-16T06:10:35;22.90;55.80
39751;DHT22;37579;51.074;17.004;2023-01-16T06:13:02;22.90;56.10
39751;DHT22;37579;51.074;17.004;2023-01-16T06:15:28;23.00;56.30
39751;DHT22;37579;51.074;17.004;2023-01-16T06:17:54;23.00;56.20
39751;DHT22;37579;51.074;17.004;2023-01-16T06:20:23;23.00;56.10
39751;DHT22;37579;51.074;17.004;2023-01-16T06:22:49;23.10;56.20
39751;DHT22;37579;51.074;17.004;2023-01-16T06:25:15;23.10;56.20
39751;DHT22;37579;51.074;17.004;2023-01-16T06:27:41;23.10;56.20
39751;DHT22;37579;51.074;17.004;2023-01-16T06:30:08;23.10;56.20
39751;DHT22;37579;51.074;17.004;2023-01-16T06:32:34;23.10;56.20
39751;DHT22;37579;51.074;17.004;2023-01-16T06:34:59;23.00;56.10
39751;DHT22;37579;51.074;17.004;2023-01-16T06:37:25;23.10;56.20
39751;DHT22;37579;51.074;17.004;2023-01-16T06:39:51;23.00;56.20
39751;DHT22;37579;51.074;17.004;2023-01-16T06:42:17;23.00;56.30
39751;DHT22;37579;51.074;17.004;2023-01-16T06:44:43;23.00;56.10
39751;DHT22;37579;51.074;17.004;2023-01-16T06:47:09;23.00;56.20
39751;DHT22;37579;51.074;17.004;2023-01-16T06:49:35;23.00;56.10
39751;DHT22;37579;51.074;17.004;2023-01-16T06:52:01;23.00;56.00
39751;DHT22;37579;51.074;17.004;2023-01-16T06:54:27;23.00;56.00
39751;DHT22;37579;51.074;17.004;2023-01-16T06:56:52;23.00;56.00
39751;DHT22;37579;51.074;17.004;2023-01-16T06:59:18;23.00;56.00
39751;DHT22;37579;51.074;17.004;2023-01-16T07:01:44;23.00;55.90
39751;DHT22;37579;51.074;17.004;2023-01-16T07:04:10;23.00;55.90
39751;DHT22;37579;51.074;17.004;2023-01-16T07:06:36;23.00;55.80
39751;DHT22;37579;51.074;17.004;2023-01-16T07:09:03;23.00;55.70
39751;DHT22;37579;51.074;17.004;2023-01-16T07:11:29;23.00;55.70
39751;DHT22;37579;51.074;17.004;2023-01-16T07:13:55;23.00;55.60
39751;DHT22;37579;51.074;17.004;2023-01-16T07:16:41;23.00;55.60
39751;DHT22;37579;51.074;17.004;2023-01-16T07:19:26;23.00;55.60
39751;DHT22;37579;51.074;17.004;2023-01-16T07:24:56;23.00;55.10
39751;DHT22;37579;51.074;17.004;2023-01-16T07:27:23;23.00;55.60
39751;DHT22;37579;51.074;17.004;2023-01-16T07:29:49;23.00;55.60
39751;DHT22;37579;51.074;17.004;2023-01-16T07:32:15;23.00;55.60
39751;DHT22;37579;51.074;17.004;2023-01-16T07:34:41;23.00;55.70
39751;DHT22;37579;51.074;17.004;2023-01-16T07:37:07;23.00;55.70
39751;DHT22;37579;51.074;17.004;2023-01-16T07:39:36;23.00;55.70
39751;DHT22;37579;51.074;17.004;2023-01-16T07:42:04;23.00;55.80
39751;DHT22;37579;51.074;17.004;2023-01-16T07:44:30;23.00;55.70
39751;DHT22;37579;51.074;17.004;2023-01-16T07:46:56;23.00;55.70
39751;DHT22;37579;51.074;17.004;2023-01-16T07:49:22;22.90;55.70
39751;DHT22;37579;51.074;17.004;2023-01-16T07:51:47;23.00;55.70
39751;DHT22;37579;51.074;17.004;2023-01-16T07:54:13;23.00;55.70
39751;DHT22;37579;51.074;17.004;2023-01-16T07:56:39;23.00;55.80
39751;DHT22;37579;51.074;17.004;2023-01-16T07:59:05;23.00;55.90
39751;DHT22;37579;51.074;17.004;2023-01-16T08:01:31;23.00;56.00
39751;DHT22;37579;51.074;17.004;2023-01-16T08:03:57;23.00;56.10
39751;DHT22;37579;51.074;17.004;2023-01-16T08:06:23;23.00;56.20
39751;DHT22;37579;51.074;17.004;2023-01-16T08:08:49;23.00;56.20
39751;DHT22;37579;51.074;17.004;2023-01-16T08:11:15;23.00;56.30
39751;DHT22;37579;51.074;17.004;2023-01-16T08:14:00;23.00;56.30
39751;DHT22;37579;51.074;17.004;2023-01-16T08:16:26;23.00;56.40
39751;DHT22;37579;51.074;17.004;2023-01-16T08:18:52;23.00;56.40
39751;DHT22;37579;51.074;17.004;2023-01-16T08:21:18;23.10;56.40
39751;DHT22;37579;51.074;17.004;2023-01-16T08:23:44;23.10;56.40
39751;DHT22;37579;51.074;17.004;2023-01-16T08:26:10;23.10;56.30
39751;DHT22;37579;51.074;17.004;2023-01-16T08:28:37;23.10;56.30
39751;DHT22;37579;51.074;17.004;2023-01-16T08:31:04;23.10;56.20
39751;DHT22;37579;51.074;17.004;2023-01-16T08:33:35;23.20;56.30
39751;DHT22;37579;51.074;17.004;2023-01-16T08:36:03;23.20;56.80
39751;DHT22;37579;51.074;17.004;2023-01-16T08:38:29;23.20;56.10
39751;DHT22;37579;51.074;17.004;2023-01-16T08:40:54;23.30;56.20
39751;DHT22;37579;51.074;17.004;2023-01-16T08:43:20;23.30;56.30
39751;DHT22;37579;51.074;17.004;2023-01-16T08:46:14;23.40;56.40
39751;DHT22;37579;51.074;17.004;2023-01-16T08:49:00;23.40;56.40
39751;DHT22;37579;51.074;17.004;2023-01-16T08:51:45;23.40;56.30
39751;DHT22;37579;51.074;17.004;2023-01-16T08:54:10;23.40;56.40
39751;DHT22;37579;51.074;17.004;2023-01-16T08:56:36;23.40;56.30
39751;DHT22;37579;51.074;17.004;2023-01-16T08:59:09;23.50;56.40
39751;DHT22;37579;51.074;17.004;2023-01-16T09:01:37;23.50;56.60
39751;DHT22;37579;51.074;17.004;2023-01-16T09:04:04;23.50;56.40
39751;DHT22;37579;51.074;17.004;2023-01-16T09:06:30;23.50;56.20
39751;DHT22;37579;51.074;17.004;2023-01-16T09:08:56;23.50;56.10
39751;DHT22;37579;51.074;17.004;2023-01-16T09:11:22;23.60;56.00
39751;DHT22;37579;51.074;17.004;2023-01-16T09:14:06;23.60;55.90
39751;DHT22;37579;51.074;17.004;2023-01-16T09:16:32;23.60;55.90
39751;DHT22;37579;51.074;17.004;2023-01-16T09:18:58;23.60;55.80
39751;DHT22;37579;51.074;17.004;2023-01-16T09:21:24;23.60;55.80
39751;DHT22;37579;51.074;17.004;2023-01-16T09:23:51;23.60;56.40
39751;DHT22;37579;51.074;17.004;2023-01-16T09:26:17;23.60;55.70
39751;DHT22;37579;51.074;17.004;2023-01-16T09:28:43;23.60;55.70
39751;DHT22;37579;51.074;17.004;2023-01-16T09:31:08;23.60;55.70
39751;DHT22;37579;51.074;17.004;2023-01-16T09:33:34;23.60;55.60
39751;DHT22;37579;51.074;17.004;2023-01-16T09:36:03;23.60;55.60
39751;DHT22;37579;51.074;17.004;2023-01-16T09:38:29;23.60;55.60
39751;DHT22;37579;51.074;17.004;2023-01-16T09:40:57;23.60;55.40
39751;DHT22;37579;51.074;17.004;2023-01-16T09:46:08;23.60;55.40
39751;DHT22;37579;51.074;17.004;2023-01-16T09:51:20;23.60;55.30
39751;DHT22;37579;51.074;17.004;2023-01-16T09:56:41;23.60;55.40
39751;DHT22;37579;51.074;17.004;2023-01-16T09:59:41;23.60;55.30
39751;DHT22;37579;51.074;17.004;2023-01-16T10:02:17;23.60;55.50
39751;DHT22;37579;51.074;17.004;2023-01-16T10:04:45;23.60;55.40
39751;DHT22;37579;51.074;17.004;2023-01-16T10:13:28;23.50;55.50
39751;DHT22;37579;51.074;17.004;2023-01-16T10:24:29;23.60;55.70
39751;DHT22;37579;51.074;17.004;2023-01-16T10:29:36;23.60;55.60
39751;DHT22;37579;51.074;17.004;2023-01-16T10:32:12;23.60;55.50
39751;DHT22;37579;51.074;17.004;2023-01-16T10:37:33;23.60;55.40
39751;DHT22;37579;51.074;17.004;2023-01-16T10:40:23;23.70;55.30
39751;DHT22;37579;51.074;17.004;2023-01-16T10:43:01;23.70;55.20
39751;DHT22;37579;51.074;17.004;2023-01-16T10:45:48;23.70;55.30
39751;DHT22;37579;51.074;17.004;2023-01-16T10:48:32;23.70;55.40
39751;DHT22;37579;51.074;17.004;2023-01-16T10:51:17;23.70;55.40
39751;DHT22;37579;51.074;17.004;2023-01-16T10:53:43;23.60;55.40
39751;DHT22;37579;51.074;17.004;2023-01-16T10:56:09;23.60;55.30
39751;DHT22;37579;51.074;17.004;2023-01-16T10:58:37;23.60;55.30
39751;DHT22;37579;51.074;17.004;2023-01-16T11:01:14;23.60;55.20
39751;DHT22;37579;51.074;17.004;2023-01-16T11:03:45;23.50;55.10
39751;DHT22;37579;51.074;17.004;2023-01-16T11:06:24;23.50;55.00
39751;DHT22;37579;51.074;17.004;2023-01-16T11:08:59;23.50;55.20
39751;DHT22;37579;51.074;17.004;2023-01-16T11:11:27;23.40;55.50
39751;DHT22;37579;51.074;17.004;2023-01-16T11:14:36;23.40;55.90
39751;DHT22;37579;51.074;17.004;2023-01-16T11:17:30;23.40;56.30
39751;DHT22;37579;51.074;17.004;2023-01-16T11:20:31;23.40;56.50
39751;DHT22;37579;51.074;17.004;2023-01-16T11:23:20;23.40;56.70
39751;DHT22;37579;51.074;17.004;2023-01-16T11:25:46;23.40;57.00
39751;DHT22;37579;51.074;17.004;2023-01-16T11:28:38;23.40;57.40
39751;DHT22;37579;51.074;17.004;2023-01-16T11:31:13;23.30;58.10
39751;DHT22;37579;51.074;17.004;2023-01-16T11:33:46;23.30;58.10
39751;DHT22;37579;51.074;17.004;2023-01-16T11:36:17;23.40;58.20
39751;DHT22;37579;51.074;17.004;2023-01-16T11:38:46;23.30;58.30
39751;DHT22;37579;51.074;17.004;2023-01-16T11:41:18;23.40;58.40
39751;DHT22;37579;51.074;17.004;2023-01-16T11:43:44;23.40;58.40
39751;DHT22;37579;51.074;17.004;2023-01-16T11:49:03;23.40;58.70
39751;DHT22;37579;51.074;17.004;2023-01-16T11:51:31;23.40;58.80
39751;DHT22;37579;51.074;17.004;2023-01-16T11:53:59;23.40;58.70
39751;DHT22;37579;51.074;17.004;2023-01-16T12:08:22;23.40;58.60
39751;DHT22;37579;51.074;17.004;2023-01-16T12:36:59;23.30;58.40
39751;DHT22;37579;51.074;17.004;2023-01-16T12:39:49;23.30;58.40
39751;DHT22;37579;51.074;17.004;2023-01-16T12:42:40;23.30;58.30
39751;DHT22;37579;51.074;17.004;2023-01-16T12:59:51;23.20;58.60
39751;DHT22;37579;51.074;17.004;2023-01-16T13:05:16;23.20;58.70
39751;DHT22;37579;51.074;17.004;2023-01-16T13:08:09;23.20;59.30
39751;DHT22;37579;51.074;17.004;2023-01-16T13:10:40;23.20;59.10
39751;DHT22;37579;51.074;17.004;2023-01-16T13:13:28;23.20;59.10
39751;DHT22;37579;51.074;17.004;2023-01-16T13:16:03;23.30;59.00
39751;DHT22;37579;51.074;17.004;2023-01-16T13:18:51;23.30;58.90
39751;DHT22;37579;51.074;17.004;2023-01-16T13:21:21;23.40;58.90
39751;DHT22;37579;51.074;17.004;2023-01-16T13:23:56;23.40;58.80
39751;DHT22;37579;51.074;17.004;2023-01-16T13:26:24;23.40;58.60
39751;DHT22;37579;51.074;17.004;2023-01-16T13:29:14;23.40;58.80
39751;DHT22;37579;51.074;17.004;2023-01-16T13:32:51;23.50;58.80
39751;DHT22;37579;51.074;17.004;2023-01-16T13:35:03;23.40;58.80
39751;DHT22;37579;51.074;17.004;2023-01-16T13:40:45;23.50;58.90
39751;DHT22;37579;51.074;17.004;2023-01-16T13:43:56;23.50;58.90
39751;DHT22;37579;51.074;17.004;2023-01-16T13:46:39;23.50;59.10
39751;DHT22;37579;51.074;17.004;2023-01-16T13:49:06;23.60;59.10
39751;DHT22;37579;51.074;17.004;2023-01-16T13:51:41;23.60;59.10
39751;DHT22;37579;51.074;17.004;2023-01-16T13:54:18;23.60;59.30
39751;DHT22;37579;51.074;17.004;2023-01-16T13:56:59;23.60;59.10
39751;DHT22;37579;51.074;17.004;2023-01-16T14:02:41;23.70;59.00
39751;DHT22;37579;51.074;17.004;2023-01-16T14:05:20;23.70;59.10
39751;DHT22;37579;51.074;17.004;2023-01-16T14:10:43;23.70;58.80
39751;DHT22;37579;51.074;17.004;2023-01-16T14:13:14;23.80;58.60
39751;DHT22;37579;51.074;17.004;2023-01-16T14:15:53;23.80;58.60
39751;DHT22;37579;51.074;17.004;2023-01-16T14:21:20;23.80;58.70
39751;DHT22;37579;51.074;17.004;2023-01-16T14:23:50;23.70;58.60
39751;DHT22;37579;51.074;17.004;2023-01-16T14:29:17;23.80;58.60
39751;DHT22;37579;51.074;17.004;2023-01-16T14:32:00;23.70;58.70
39751;DHT22;37579;51.074;17.004;2023-01-16T14:37:10;23.70;58.70
39751;DHT22;37579;51.074;17.004;2023-01-16T14:39:40;23.70;58.70
39751;DHT22;37579;51.074;17.004;2023-01-16T14:42:33;23.70;58.70
39751;DHT22;37579;51.074;17.004;2023-01-16T14:45:25;23.70;58.70
39751;DHT22;37579;51.074;17.004;2023-01-16T14:48:32;23.60;58.70
39751;DHT22;37579;51.074;17.004;2023-01-16T14:51:34;23.60;58.70
39751;DHT22;37579;51.074;17.004;2023-01-16T14:54:32;23.60;58.80
39751;DHT22;37579;51.074;17.004;2023-01-16T14:57:18;23.60;58.80
39751;DHT22;37579;51.074;17.004;2023-01-16T15:00:04;23.50;58.70
39751;DHT22;37579;51.074;17.004;2023-01-16T15:02:58;23.50;58.80
39751;DHT22;37579;51.074;17.004;2023-01-16T15:05:48;23.50;58.90
39751;DHT22;37579;51.074;17.004;2023-01-16T15:08:30;23.50;59.00
39751;DHT22;37579;51.074;17.004;2023-01-16T15:11:01;23.50;59.00
39751;DHT22;37579;51.074;17.004;2023-01-16T15:14:14;23.40;59.10
39751;DHT22;37579;51.074;17.004;2023-01-16T15:17:11;23.40;59.00
39751;DHT22;37579;51.074;17.004;2023-01-16T15:22:51;23.40;59.20
39751;DHT22;37579;51.074;17.004;2023-01-16T15:28:16;23.30;59.20
39751;DHT22;37579;51.074;17.004;2023-01-16T15:30:44;23.30;59.20
39751;DHT22;37579;51.074;17.004;2023-01-16T15:33:27;23.30;59.30
39751;DHT22;37579;51.074;17.004;2023-01-16T15:36:40;23.30;59.40
39751;DHT22;37579;51.074;17.004;2023-01-16T15:41:46;23.40;59.20
39751;DHT22;37579;51.074;17.004;2023-01-16T15:44:36;23.50;59.00
39751;DHT22;37579;51.074;17.004;2023-01-16T15:53:01;23.50;58.50
39751;DHT22;37579;51.074;17.004;2023-01-16T15:55:35;23.60;58.40
39751;DHT22;37579;51.074;17.004;2023-01-16T15:58:03;23.60;58.40
39751;DHT22;37579;51.074;17.004;2023-01-16T16:00:33;23.60;58.40
39751;DHT22;37579;51.074;17.004;2023-01-16T16:03:04;23.60;58.30
39751;DHT22;37579;51.074;17.004;2023-01-16T16:05:35;23.60;58.30
39751;DHT22;37579;51.074;17.004;2023-01-16T16:08:03;23.60;58.20
39751;DHT22;37579;51.074;17.004;2023-01-16T16:10:30;23.60;58.30
39751;DHT22;37579;51.074;17.004;2023-01-16T16:13:17;23.60;58.30
39751;DHT22;37579;51.074;17.004;2023-01-16T16:16:23;23.60;58.30
39751;DHT22;37579;51.074;17.004;2023-01-16T16:19:09;23.60;58.30
39751;DHT22;37579;51.074;17.004;2023-01-16T16:21:44;23.60;58.20
39751;DHT22;37579;51.074;17.004;2023-01-16T16:24:33;23.60;58.10
39751;DHT22;37579;51.074;17.004;2023-01-16T16:27:04;23.60;58.10
39751;DHT22;37579;51.074;17.004;2023-01-16T16:29:32;23.60;58.00
39751;DHT22;37579;51.074;17.004;2023-01-16T16:32:03;23.70;58.10
39751;DHT22;37579;51.074;17.004;2023-01-16T16:34:30;23.60;58.20
39751;DHT22;37579;51.074;17.004;2023-01-16T16:36:57;23.60;58.20
39751;DHT22;37579;51.074;17.004;2023-01-16T16:41:53;23.70;58.20
39751;DHT22;37579;51.074;17.004;2023-01-16T16:44:46;23.70;58.20
39751;DHT22;37579;51.074;17.004;2023-01-16T16:47:29;23.70;58.10
39751;DHT22;37579;51.074;17.004;2023-01-16T16:49:55;23.80;58.10
39751;DHT22;37579;51.074;17.004;2023-01-16T16:52:38;23.80;58.00
39751;DHT22;37579;51.074;17.004;2023-01-16T16:55:45;23.80;57.80
39751;DHT22;37579;51.074;17.004;2023-01-16T16:58:19;23.80;57.80
39751;DHT22;37579;51.074;17.004;2023-01-16T17:00:46;23.90;57.80
39751;DHT22;37579;51.074;17.004;2023-01-16T17:03:16;23.90;57.80
39751;DHT22;37579;51.074;17.004;2023-01-16T17:05:42;23.90;57.80
39751;DHT22;37579;51.074;17.004;2023-01-16T17:08:14;23.90;57.90
39751;DHT22;37579;51.074;17.004;2023-01-16T17:10:40;23.90;58.00
39751;DHT22;37579;51.074;17.004;2023-01-16T17:13:09;23.90;58.10
39751;DHT22;37579;51.074;17.004;2023-01-16T17:15:36;23.90;58.10
39751;DHT22;37579;51.074;17.004;2023-01-16T17:18:02;23.90;58.20
39751;DHT22;37579;51.074;17.004;2023-01-16T17:20:28;24.00;58.70
39751;DHT22;37579;51.074;17.004;2023-01-16T17:22:54;24.00;58.30
39751;DHT22;37579;51.074;17.004;2023-01-16T17:25:20;24.00;58.20
39751;DHT22;37579;51.074;17.004;2023-01-16T17:27:53;24.00;58.20
39751;DHT22;37579;51.074;17.004;2023-01-16T17:30:21;24.00;58.10
39751;DHT22;37579;51.074;17.004;2023-01-16T17:32:59;24.00;58.10
39751;DHT22;37579;51.074;17.004;2023-01-16T17:35:26;24.10;58.10
39751;DHT22;37579;51.074;17.004;2023-01-16T17:37:52;24.00;58.20
39751;DHT22;37579;51.074;17.004;2023-01-16T17:40:18;24.00;58.20
39751;DHT22;37579;51.074;17.004;2023-01-16T17:42:44;23.90;58.40
39751;DHT22;37579;51.074;17.004;2023-01-16T17:45:43;24.00;58.40
39751;DHT22;37579;51.074;17.004;2023-01-16T17:48:19;24.00;58.60
39751;DHT22;37579;51.074;17.004;2023-01-16T17:50:46;24.00;58.70
39751;DHT22;37579;51.074;17.004;2023-01-16T17:53:16;24.00;58.60
39751;DHT22;37579;51.074;17.004;2023-01-16T17:55:48;24.00;58.80
39751;DHT22;37579;51.074;17.004;2023-01-16T17:58:27;24.00;58.80
39751;DHT22;37579;51.074;17.004;2023-01-16T18:01:02;24.00;58.90
39751;DHT22;37579;51.074;17.004;2023-01-16T18:03:30;24.00;58.60
39751;DHT22;37579;51.074;17.004;2023-01-16T18:24:31;24.10;57.90
39751;DHT22;37579;51.074;17.004;2023-01-16T18:26:58;24.10;58.40
39751;DHT22;37579;51.074;17.004;2023-01-16T18:29:25;24.00;59.00
39751;DHT22;37579;51.074;17.004;2023-01-16T18:31:51;23.90;59.10
39751;DHT22;37579;51.074;17.004;2023-01-16T18:34:36;24.00;59.10
39751;DHT22;37579;51.074;17.004;2023-01-16T18:37:02;23.90;59.00
39751;DHT22;37579;51.074;17.004;2023-01-16T18:39:28;23.90;59.00
39751;DHT22;37579;51.074;17.004;2023-01-16T18:42:12;23.90;58.90
39751;DHT22;37579;51.074;17.004;2023-01-16T18:44:57;23.90;59.00
39751;DHT22;37579;51.074;17.004;2023-01-16T18:47:41;23.90;59.00
39751;DHT22;37579;51.074;17.004;2023-01-16T18:50:26;23.90;58.90
39751;DHT22;37579;51.074;17.004;2023-01-16T18:53:27;23.90;58.90
39751;DHT22;37579;51.074;17.004;2023-01-16T18:56:35;23.90;58.90
39751;DHT22;37579;51.074;17.004;2023-01-16T18:59:20;23.90;58.90
39751;DHT22;37579;51.074;17.004;2023-01-16T19:04:48;23.80;58.90